createdAt,value
2023-08-16T00:02:24.162Z,6.22
2023-08-16T00:04:51.259Z,6.65
2023-08-16T00:07:17.926Z,7.00
2023-08-16T00:09:44.709Z,6.55
2023-08-16T00:12:11.732Z,6.97
2023-08-16T00:14:38.400Z,6.72
2023-08-16T00:17:06.098Z,6.25
2023-08-16T00:19:32.736Z,6.50
2023-08-16T00:21:59.434Z,6.88
2023-08-16T00:24:26.124Z,6.45
2023-08-16T00:26:52.745Z,6.15
2023-08-16T00:29:19.679Z,6.57
2023-08-16T00:31:46.348Z,7.07
2023-08-16T00:34:13.008Z,6.32
2023-08-16T00:36:42.214Z,6.30
2023-08-16T00:39:08.839Z,6.88
2023-08-16T00:41:35.622Z,7.65
2023-08-16T00:44:02.276Z,6.65
2023-08-16T00:46:31.611Z,6.80
2023-08-16T00:48:58.582Z,6.43
2023-08-16T00:51:25.503Z,7.25
2023-08-16T00:53:53.953Z,6.57
2023-08-16T00:56:21.407Z,6.50
2023-08-16T00:58:48.153Z,6.32
2023-08-16T01:01:15.473Z,6.55
2023-08-16T01:03:42.252Z,6.00
2023-08-16T01:06:09.323Z,6.20
2023-08-16T01:08:36.157Z,6.10
2023-08-16T01:11:30.878Z,6.72
2023-08-16T01:14:37.719Z,6.43
2023-08-16T01:17:07.162Z,6.40
2023-08-16T01:19:35.062Z,5.78
2023-08-16T01:22:29.583Z,6.60
2023-08-16T01:25:27.008Z,6.60
2023-08-16T01:27:54.884Z,5.95
2023-08-16T01:30:22.289Z,6.63
2023-08-16T01:32:49.771Z,6.85
2023-08-16T01:35:17.837Z,6.85
2023-08-16T01:37:45.096Z,6.88
2023-08-16T01:40:12.577Z,6.72
2023-08-16T01:42:47.814Z,6.47
2023-08-16T01:45:17.941Z,6.85
2023-08-16T01:47:48.558Z,7.70
2023-08-16T01:50:15.744Z,7.65
2023-08-16T01:52:42.811Z,7.70
2023-08-16T01:55:09.690Z,8.02
2023-08-16T01:57:36.333Z,7.88
2023-08-16T02:00:03.391Z,8.57
2023-08-16T02:02:30.228Z,8.20
2023-08-16T02:04:57.297Z,8.43
2023-08-16T02:07:24.871Z,8.80
2023-08-16T02:09:51.753Z,8.40
2023-08-16T02:12:18.860Z,9.40
2023-08-16T02:14:45.518Z,9.85
2023-08-16T02:17:12.220Z,9.43
2023-08-16T02:19:38.935Z,10.20
2023-08-16T02:22:05.952Z,9.38
2023-08-16T02:24:32.663Z,9.88
2023-08-16T02:27:00.341Z,9.80
2023-08-16T02:29:27.036Z,9.77
2023-08-16T02:31:53.731Z,10.45
2023-08-16T02:34:20.417Z,10.48
2023-08-16T02:36:47.094Z,9.48
2023-08-16T02:39:13.721Z,9.07
2023-08-16T02:41:40.432Z,8.90
2023-08-16T02:44:07.254Z,9.13
2023-08-16T02:46:33.941Z,9.70
2023-08-16T02:49:01.210Z,9.15
2023-08-16T02:51:27.845Z,9.07
2023-08-16T02:53:54.508Z,10.25
2023-08-16T02:56:21.226Z,10.18
2023-08-16T02:58:47.895Z,9.43
2023-08-16T03:01:15.956Z,9.95
2023-08-16T03:03:43.423Z,9.60
2023-08-16T03:06:10.101Z,9.95
2023-08-16T03:08:36.985Z,9.57
2023-08-16T03:11:03.734Z,10.13
2023-08-16T03:13:30.438Z,10.07
2023-08-16T03:15:57.212Z,9.32
2023-08-16T03:18:23.924Z,10.80
2023-08-16T03:20:50.782Z,10.90
2023-08-16T03:23:17.492Z,10.73
2023-08-16T03:25:45.493Z,10.90
2023-08-16T03:28:12.358Z,10.65
2023-08-16T03:30:40.215Z,11.10
2023-08-16T03:33:07.661Z,10.68
2023-08-16T03:35:34.525Z,9.90
2023-08-16T03:38:01.225Z,10.38
2023-08-16T03:40:28.008Z,10.82
2023-08-16T03:42:54.674Z,10.18
2023-08-16T03:45:26.475Z,9.73
2023-08-16T03:47:58.351Z,10.27
2023-08-16T03:50:25.004Z,9.57
2023-08-16T03:52:51.855Z,10.57
2023-08-16T03:55:18.500Z,10.38
2023-08-16T03:57:45.152Z,11.43
2023-08-16T04:00:13.262Z,9.93
2023-08-16T04:02:40.837Z,10.48
2023-08-16T04:05:10.460Z,11.07
2023-08-16T04:07:37.276Z,10.00
2023-08-16T04:10:04.437Z,10.93
2023-08-16T04:12:31.069Z,10.07
2023-08-16T04:14:57.740Z,9.20
2023-08-16T04:17:24.786Z,9.63
2023-08-16T04:19:52.443Z,9.82
2023-08-16T04:22:19.094Z,10.32
2023-08-16T04:24:46.479Z,11.40
2023-08-16T04:27:13.168Z,10.45
2023-08-16T04:29:39.903Z,10.23
2023-08-16T04:32:06.910Z,10.20
2023-08-16T04:34:33.633Z,10.05
2023-08-16T04:37:00.270Z,11.35
2023-08-16T04:39:27.696Z,10.75
2023-08-16T04:41:54.415Z,10.43
2023-08-16T04:44:21.054Z,10.35
2023-08-16T04:46:48.766Z,10.50
2023-08-16T04:49:16.390Z,9.50
2023-08-16T04:51:43.103Z,9.73
2023-08-16T04:54:09.821Z,9.57
2023-08-16T04:56:37.249Z,10.55
2023-08-16T04:59:04.134Z,10.52
2023-08-16T05:01:30.864Z,10.13
2023-08-16T05:03:57.611Z,10.00
2023-08-16T05:06:24.332Z,10.48
2023-08-16T05:08:51.029Z,11.10
2023-08-16T05:11:17.978Z,11.10
2023-08-16T05:13:44.600Z,12.30
2023-08-16T05:16:11.307Z,11.73
2023-08-16T05:18:38.841Z,12.93
2023-08-16T05:21:06.299Z,13.15
2023-08-16T05:23:34.708Z,11.68
2023-08-16T05:26:01.745Z,10.98
2023-08-16T05:28:29.525Z,11.20
2023-08-16T05:30:56.207Z,11.57
2023-08-16T05:33:23.043Z,10.82
2023-08-16T05:35:49.919Z,10.98
2023-08-16T05:38:16.590Z,11.85
2023-08-16T05:40:43.253Z,17.15
2023-08-16T05:43:09.987Z,16.67
2023-08-16T05:45:37.607Z,17.35
2023-08-16T05:48:04.862Z,15.55
2023-08-16T05:50:31.588Z,16.65
2023-08-16T05:52:58.323Z,16.45
2023-08-16T05:55:26.319Z,14.70
2023-08-16T05:57:55.261Z,13.98
2023-08-16T06:03:03.851Z,11.90
2023-08-16T06:05:30.753Z,12.55
2023-08-16T06:07:58.651Z,12.73
2023-08-16T06:10:26.108Z,15.30
2023-08-16T06:12:52.743Z,16.20
2023-08-16T06:15:19.482Z,16.80
2023-08-16T06:17:46.193Z,15.32
2023-08-16T06:20:13.089Z,14.88
2023-08-16T06:22:40.249Z,14.38
2023-08-16T06:25:08.490Z,14.35
2023-08-16T06:27:35.387Z,14.35
2023-08-16T06:30:02.682Z,14.98
2023-08-16T06:32:29.809Z,12.85
2023-08-16T06:34:56.500Z,14.70
2023-08-16T06:37:23.368Z,15.60
2023-08-16T06:39:50.347Z,13.65
2023-08-16T06:42:16.982Z,13.90
2023-08-16T06:44:43.606Z,13.95
2023-08-16T06:47:10.299Z,14.32
2023-08-16T06:49:36.978Z,13.75
2023-08-16T06:52:04.815Z,12.35
2023-08-16T06:54:31.609Z,11.57
2023-08-16T06:56:59.334Z,11.25
2023-08-16T06:59:27.123Z,11.10
2023-08-16T07:01:53.912Z,10.70
2023-08-16T07:04:20.590Z,10.13
2023-08-16T07:06:47.246Z,9.55
2023-08-16T07:09:13.989Z,9.43
2023-08-16T07:11:40.700Z,10.40
2023-08-16T07:14:07.389Z,10.20
2023-08-16T07:16:34.856Z,9.38
2023-08-16T07:19:02.599Z,9.98
2023-08-16T07:21:29.226Z,10.13
2023-08-16T07:23:56.012Z,10.27
2023-08-16T07:26:23.808Z,10.60
2023-08-16T07:28:50.438Z,10.05
2023-08-16T07:31:20.795Z,10.15
2023-08-16T07:33:47.489Z,10.73
2023-08-16T07:36:14.216Z,11.25
2023-08-16T07:38:41.002Z,11.00
2023-08-16T07:41:08.472Z,11.60
2023-08-16T07:43:35.885Z,9.98
2023-08-16T07:46:03.708Z,11.13
2023-08-16T07:48:30.707Z,12.30
2023-08-16T07:50:57.485Z,10.75
2023-08-16T07:53:24.208Z,11.43
2023-08-16T07:55:50.943Z,10.57
2023-08-16T07:58:17.894Z,10.00
2023-08-16T08:00:47.308Z,10.25
2023-08-16T08:05:41.021Z,9.65
2023-08-16T08:08:08.968Z,10.15
2023-08-16T08:10:35.650Z,9.80
2023-08-16T08:13:02.365Z,10.20
2023-08-16T08:15:29.852Z,9.48
2023-08-16T08:17:56.605Z,9.30
2023-08-16T08:20:23.339Z,9.57
2023-08-16T08:22:50.006Z,9.57
2023-08-16T08:25:16.792Z,9.10
2023-08-16T08:27:43.501Z,10.13
2023-08-16T08:30:10.957Z,9.13
2023-08-16T08:32:37.805Z,9.38
2023-08-16T08:35:06.331Z,8.60
2023-08-16T08:37:33.082Z,9.07
2023-08-16T08:39:59.840Z,9.18
2023-08-16T08:42:29.822Z,9.07
2023-08-16T08:44:58.042Z,8.70
2023-08-16T08:47:26.548Z,8.23
2023-08-16T08:49:54.317Z,7.68
2023-08-16T08:52:22.728Z,7.97
2023-08-16T08:54:50.398Z,8.30
2023-08-16T08:57:20.034Z,8.30
2023-08-16T08:59:51.254Z,8.40
2023-08-16T09:02:19.155Z,8.63
2023-08-16T09:04:47.832Z,8.18
2023-08-16T09:07:18.311Z,8.03
2023-08-16T09:09:45.549Z,8.27
2023-08-16T09:12:16.758Z,8.60
2023-08-16T09:14:43.388Z,8.73
2023-08-16T09:17:10.089Z,7.90
2023-08-16T09:19:45.075Z,8.43
2023-08-16T09:22:13.459Z,8.40
2023-08-16T09:24:44.573Z,8.27
2023-08-16T09:27:15.757Z,9.25
2023-08-16T09:29:42.416Z,8.77
2023-08-16T09:32:16.601Z,8.98
2023-08-16T09:37:18.131Z,9.10
2023-08-16T09:39:44.779Z,8.10
2023-08-16T09:42:12.165Z,6.40
2023-08-16T09:44:42.778Z,6.63
2023-08-16T09:47:18.226Z,6.07
2023-08-16T09:49:48.125Z,6.22
2023-08-16T09:52:15.446Z,5.95
2023-08-16T09:54:42.224Z,5.70
2023-08-16T09:59:40.637Z,6.35
2023-08-16T10:02:14.264Z,5.80
2023-08-16T10:07:14.314Z,4.88
2023-08-16T10:09:45.321Z,5.10
2023-08-16T10:12:12.782Z,4.35
2023-08-16T10:14:39.928Z,4.00
2023-08-16T10:17:08.306Z,4.15
2023-08-16T10:19:38.521Z,4.00
2023-08-16T10:22:23.281Z,4.30
2023-08-16T10:25:00.440Z,4.15
2023-08-16T10:27:28.578Z,4.05
2023-08-16T10:32:31.776Z,3.65
2023-08-16T10:35:00.613Z,4.05
2023-08-16T10:37:27.528Z,4.38
2023-08-16T10:42:28.104Z,3.38
2023-08-16T10:44:55.145Z,3.70
2023-08-16T10:47:31.984Z,3.88
2023-08-16T10:50:02.136Z,3.90
2023-08-16T10:52:31.975Z,3.90
2023-08-16T10:55:00.784Z,3.53
2023-08-16T10:57:27.795Z,4.22
2023-08-16T11:00:08.370Z,3.55
2023-08-16T11:02:38.489Z,3.83
2023-08-16T11:05:06.710Z,3.75
2023-08-16T11:07:33.427Z,3.90
2023-08-16T11:10:01.589Z,3.60
2023-08-16T11:12:32.443Z,3.70
2023-08-16T11:14:59.522Z,3.70
2023-08-16T11:17:30.674Z,3.30
2023-08-16T11:19:57.925Z,3.70
2023-08-16T11:22:29.642Z,3.50
2023-08-16T11:24:56.622Z,3.33
2023-08-16T11:27:24.123Z,3.50
2023-08-16T11:29:52.174Z,3.45
2023-08-16T11:32:54.163Z,4.15
2023-08-16T11:35:21.293Z,3.40
2023-08-16T11:37:47.996Z,3.58
2023-08-16T11:40:14.676Z,3.60
2023-08-16T11:42:42.257Z,3.40
2023-08-16T11:45:19.424Z,3.40
2023-08-16T11:47:50.469Z,3.15
2023-08-16T11:50:17.386Z,3.08
2023-08-16T11:52:44.111Z,3.42
2023-08-16T11:55:15.457Z,3.40
2023-08-16T11:57:46.497Z,3.40
2023-08-16T12:00:16.687Z,3.20
2023-08-16T12:02:44.856Z,3.22
2023-08-16T12:05:12.422Z,3.65
2023-08-16T12:07:48.832Z,3.67
2023-08-16T12:10:25.695Z,3.13
2023-08-16T12:12:53.838Z,3.47
2023-08-16T12:15:23.958Z,3.30
2023-08-16T12:17:56.358Z,3.58
2023-08-16T12:20:26.553Z,3.22
2023-08-16T12:22:55.219Z,3.50
2023-08-16T12:25:22.076Z,3.35
2023-08-16T12:27:48.704Z,3.30
2023-08-16T12:30:15.463Z,3.70
2023-08-16T12:32:42.715Z,3.60
2023-08-16T12:35:09.598Z,3.63
2023-08-16T12:37:38.591Z,3.13
2023-08-16T12:40:13.878Z,3.42
2023-08-16T12:42:42.963Z,3.38
2023-08-16T12:45:10.952Z,3.50
2023-08-16T12:47:37.808Z,4.00
2023-08-16T12:50:05.147Z,3.70
2023-08-16T12:52:31.857Z,3.38
2023-08-16T12:54:59.558Z,3.67
2023-08-16T12:57:26.540Z,3.20
2023-08-16T12:59:54.621Z,3.33
2023-08-16T13:02:36.338Z,3.33
2023-08-16T13:05:11.158Z,3.65
2023-08-16T13:10:23.164Z,3.22
2023-08-16T13:18:19.154Z,3.33
2023-08-16T13:23:11.498Z,3.25
2023-08-16T13:25:58.181Z,3.38
2023-08-16T13:28:44.496Z,3.50
2023-08-16T13:31:22.225Z,3.40
2023-08-16T13:36:42.963Z,3.30
2023-08-16T13:39:10.641Z,3.20
2023-08-16T13:44:44.607Z,3.20
2023-08-16T13:46:54.099Z,3.30
2023-08-16T13:49:20.860Z,3.00
2023-08-16T13:51:47.578Z,3.60
2023-08-16T13:54:14.225Z,3.40
2023-08-16T13:56:48.291Z,3.30
2023-08-16T13:59:16.253Z,3.10
2023-08-16T14:01:43.587Z,3.30
2023-08-16T14:04:10.477Z,3.05
2023-08-16T14:06:37.108Z,3.33
2023-08-16T14:09:04.827Z,3.42
2023-08-16T14:11:31.806Z,3.25
2023-08-16T14:13:59.107Z,3.47
2023-08-16T14:16:26.476Z,3.30
2023-08-16T14:18:54.841Z,3.47
2023-08-16T14:21:21.565Z,3.03
2023-08-16T14:23:56.050Z,3.20
2023-08-16T14:26:22.987Z,3.20
2023-08-16T14:28:49.840Z,3.03
2023-08-16T14:31:18.718Z,3.10
2023-08-16T14:33:45.375Z,3.45
2023-08-16T14:36:12.096Z,3.17
2023-08-16T14:38:46.741Z,3.40
2023-08-16T14:41:25.097Z,3.58
2023-08-16T14:43:51.846Z,3.78
2023-08-16T14:46:20.216Z,3.35
2023-08-16T14:48:48.288Z,3.20
2023-08-16T14:51:16.052Z,3.20
2023-08-16T14:53:42.745Z,3.20
2023-08-16T14:56:12.896Z,3.13
2023-08-16T14:58:41.270Z,3.15
2023-08-16T15:01:08.548Z,3.17
2023-08-16T15:03:36.099Z,3.40
2023-08-16T15:06:03.172Z,3.13
2023-08-16T15:08:30.302Z,3.33
2023-08-16T15:11:01.023Z,3.10
2023-08-16T15:13:28.280Z,3.05
2023-08-16T15:15:57.421Z,2.90
2023-08-16T15:18:24.286Z,2.83
2023-08-16T15:20:51.844Z,3.13
2023-08-16T15:23:24.236Z,3.17
2023-08-16T15:25:51.020Z,3.40
2023-08-16T15:28:18.030Z,3.08
2023-08-16T15:30:44.779Z,3.25
2023-08-16T15:33:11.412Z,3.25
2023-08-16T15:35:38.396Z,2.80
2023-08-16T15:38:07.574Z,3.10
2023-08-16T15:45:29.955Z,3.10
2023-08-16T15:47:56.653Z,3.10
2023-08-16T15:50:23.395Z,2.97
2023-08-16T15:52:50.104Z,2.85
2023-08-16T15:55:16.838Z,3.10
2023-08-16T15:57:43.534Z,3.15
2023-08-16T16:00:11.460Z,3.00
2023-08-16T16:02:38.154Z,3.03
2023-08-16T16:05:05.436Z,2.92
2023-08-16T16:07:33.664Z,3.00
2023-08-16T16:10:00.430Z,2.80
2023-08-16T16:12:27.082Z,3.00
2023-08-16T16:14:53.752Z,3.15
2023-08-16T16:17:25.774Z,3.20
2023-08-16T16:19:53.184Z,2.88
2023-08-16T16:22:19.956Z,3.20
2023-08-16T16:24:47.339Z,3.00
2023-08-16T16:27:14.050Z,3.30
2023-08-16T16:29:40.807Z,3.10
2023-08-16T16:32:07.767Z,3.10
2023-08-16T16:34:34.652Z,3.40
2023-08-16T16:37:01.374Z,3.30
2023-08-16T16:39:28.211Z,3.50
2023-08-16T16:41:54.945Z,3.47
2023-08-16T16:44:22.522Z,3.45
2023-08-16T16:46:51.002Z,3.63
2023-08-16T16:49:18.278Z,3.38
2023-08-16T16:51:45.684Z,4.30
2023-08-16T16:54:12.330Z,4.30
2023-08-16T16:56:39.051Z,4.95
2023-08-16T16:59:05.803Z,4.75
2023-08-16T17:01:33.973Z,4.93
2023-08-16T17:04:02.315Z,5.03
2023-08-16T17:06:29.047Z,5.22
2023-08-16T17:08:56.964Z,5.07
2023-08-16T17:11:24.765Z,5.85
2023-08-16T17:13:53.002Z,6.07
2023-08-16T17:16:21.026Z,5.80
2023-08-16T17:18:47.671Z,5.95
2023-08-16T17:21:17.134Z,5.75
2023-08-16T17:26:12.305Z,6.18
2023-08-16T17:28:39.174Z,5.75
2023-08-16T17:31:09.305Z,6.10
2023-08-16T17:33:36.779Z,5.60
2023-08-16T17:36:14.153Z,6.00
2023-08-16T17:38:42.705Z,5.13
2023-08-16T17:41:10.163Z,5.05
2023-08-16T17:43:38.075Z,5.28
2023-08-16T17:46:04.944Z,5.47
2023-08-16T17:48:31.703Z,5.90
2023-08-16T17:50:58.481Z,5.65
2023-08-16T17:53:25.459Z,5.75
2023-08-16T17:55:52.906Z,5.95
2023-08-16T17:58:22.387Z,6.35
2023-08-16T18:00:55.019Z,5.70
2023-08-16T18:03:23.294Z,6.85
2023-08-16T18:05:50.038Z,7.13
2023-08-16T18:08:16.714Z,7.20
2023-08-16T18:10:43.332Z,6.78
2023-08-16T18:13:10.021Z,6.68
2023-08-16T18:15:36.708Z,6.25
2023-08-16T18:18:04.282Z,5.43
2023-08-16T18:20:31.043Z,5.78
2023-08-16T18:22:58.818Z,5.18
2023-08-16T18:25:25.681Z,5.35
2023-08-16T18:27:52.552Z,5.25
2023-08-16T18:30:19.297Z,5.25
2023-08-16T18:32:47.727Z,5.28
2023-08-16T18:35:14.488Z,5.70
2023-08-16T18:37:41.368Z,5.32
2023-08-16T18:40:09.930Z,5.15
2023-08-16T18:42:36.810Z,5.22
2023-08-16T18:45:03.796Z,5.47
2023-08-16T18:47:30.570Z,5.50
2023-08-16T18:49:57.339Z,5.32
2023-08-16T18:52:24.192Z,5.40
2023-08-16T18:54:51.356Z,4.90
2023-08-16T18:57:18.104Z,4.63
2023-08-16T18:59:44.750Z,5.35
2023-08-16T19:02:11.407Z,5.30
2023-08-16T19:04:38.163Z,4.68
2023-08-16T19:07:05.125Z,4.80
2023-08-16T19:09:31.807Z,4.20
2023-08-16T19:11:59.692Z,4.55
2023-08-16T19:14:29.611Z,4.20
2023-08-16T19:16:56.313Z,4.53
2023-08-16T19:19:24.675Z,5.20
2023-08-16T19:21:51.400Z,4.70
2023-08-16T19:24:18.321Z,4.90
2023-08-16T19:26:45.717Z,5.50
2023-08-16T19:29:12.774Z,5.28
2023-08-16T19:31:39.500Z,5.18
2023-08-16T19:34:07.304Z,5.13
2023-08-16T19:36:33.979Z,5.20
2023-08-16T19:39:00.778Z,4.80
2023-08-16T19:41:27.505Z,5.80
2023-08-16T19:43:55.086Z,6.00
2023-08-16T19:46:25.806Z,5.85
2023-08-16T19:48:52.625Z,6.65
2023-08-16T19:51:19.307Z,6.97
2023-08-16T19:53:46.042Z,6.82
2023-08-16T19:56:14.408Z,6.95
2023-08-16T19:58:41.065Z,7.55
2023-08-16T20:01:07.984Z,7.40
2023-08-16T20:03:34.965Z,7.60
2023-08-16T20:06:01.890Z,7.35
2023-08-16T20:08:28.549Z,7.20
2023-08-16T20:10:55.296Z,7.22
2023-08-16T20:13:22.606Z,6.97
2023-08-16T20:15:52.480Z,7.00
2023-08-16T20:18:20.653Z,7.03
2023-08-16T20:20:48.228Z,6.78
2023-08-16T20:23:14.932Z,7.28
2023-08-16T20:25:42.060Z,7.72
2023-08-16T20:28:08.986Z,7.90
2023-08-16T20:30:35.758Z,7.95
2023-08-16T20:33:02.627Z,7.68
2023-08-16T20:35:29.312Z,8.27
2023-08-16T20:37:56.173Z,7.65
2023-08-16T20:40:23.100Z,7.13
2023-08-16T20:42:49.851Z,8.13
2023-08-16T20:45:17.625Z,7.70
2023-08-16T20:47:44.642Z,8.18
2023-08-16T20:50:12.194Z,8.07
2023-08-16T20:52:42.961Z,8.50
2023-08-16T20:55:10.724Z,8.68
2023-08-16T20:57:37.554Z,9.60
2023-08-16T21:00:04.685Z,8.43
2023-08-16T21:02:31.637Z,8.35
2023-08-16T21:04:58.513Z,8.88
2023-08-16T21:07:25.348Z,8.70
2023-08-16T21:09:53.151Z,8.45
2023-08-16T21:12:20.504Z,8.40
2023-08-16T21:14:48.387Z,8.75
2023-08-16T21:17:15.783Z,9.80
2023-08-16T21:19:42.914Z,8.18
2023-08-16T21:22:09.652Z,7.60
2023-08-16T21:24:36.350Z,8.00
2023-08-16T21:27:04.237Z,8.57
2023-08-16T21:29:31.066Z,8.10
2023-08-16T21:31:57.928Z,8.82
2023-08-16T21:34:24.583Z,9.05
2023-08-16T21:36:51.241Z,10.63
2023-08-16T21:39:18.061Z,9.77
2023-08-16T21:41:44.935Z,9.88
2023-08-16T21:44:11.698Z,9.95
2023-08-16T21:46:38.490Z,9.73
2023-08-16T21:49:06.203Z,9.45
2023-08-16T21:51:33.037Z,9.48
2023-08-16T21:53:59.703Z,8.38
2023-08-16T21:56:26.513Z,8.05
2023-08-16T21:58:53.244Z,8.65
2023-08-16T22:01:20.017Z,8.55
2023-08-16T22:03:47.666Z,8.10
2023-08-16T22:06:14.841Z,8.07
2023-08-16T22:08:41.515Z,9.35
2023-08-16T22:11:08.231Z,9.90
2023-08-16T22:13:36.687Z,10.30
2023-08-16T22:16:04.104Z,9.90
2023-08-16T22:18:30.907Z,9.73
2023-08-16T22:21:03.445Z,10.43
2023-08-16T22:23:31.974Z,10.00
2023-08-16T22:25:58.718Z,10.50
2023-08-16T22:28:25.742Z,11.15
2023-08-16T22:30:52.530Z,11.10
2023-08-16T22:33:19.239Z,11.13
2023-08-16T22:35:45.867Z,10.85
2023-08-16T22:38:16.492Z,9.57
2023-08-16T22:40:43.606Z,9.90
2023-08-16T22:43:10.358Z,9.25
2023-08-16T22:45:37.122Z,9.10
2023-08-16T22:48:04.229Z,9.57
2023-08-16T22:50:31.540Z,9.85
2023-08-16T22:52:58.618Z,9.50
2023-08-16T22:55:25.362Z,9.88
2023-08-16T22:57:52.167Z,10.15
2023-08-16T23:00:18.970Z,9.57
2023-08-16T23:02:45.842Z,9.13
2023-08-16T23:05:12.764Z,9.52
2023-08-16T23:07:39.411Z,9.60
2023-08-16T23:10:06.460Z,9.70
2023-08-16T23:12:33.146Z,10.00
2023-08-16T23:15:00.096Z,9.07
2023-08-16T23:17:27.021Z,9.82
2023-08-16T23:19:54.223Z,9.70
2023-08-16T23:22:20.968Z,9.95
2023-08-16T23:24:47.655Z,10.15
2023-08-16T23:27:14.315Z,10.10
2023-08-16T23:29:41.041Z,10.90
2023-08-16T23:32:07.820Z,11.15
2023-08-16T23:34:34.596Z,10.45
2023-08-16T23:37:01.273Z,10.18
2023-08-16T23:39:27.990Z,11.07
2023-08-16T23:41:57.954Z,11.07
2023-08-16T23:44:28.102Z,11.23
2023-08-16T23:46:54.866Z,10.52
2023-08-16T23:49:21.884Z,10.45
2023-08-16T23:51:49.214Z,10.40
2023-08-16T23:54:15.925Z,9.70
2023-08-16T23:56:42.640Z,11.55
2023-08-16T23:59:09.370Z,10.77
